sensor_id;sensor_type;location;lat;lon;timestamp;temperature;humidity
814;DHT22;389;48.710;9.392;2023-04-24T00:01:50;11.60;99.90
814;DHT22;389;48.710;9.392;2023-04-24T00:04:16;11.60;99.90
814;DHT22;389;48.710;9.392;2023-04-24T00:06:42;11.60;99.90
814;DHT22;389;48.710;9.392;2023-04-24T00:09:09;11.60;99.90
814;DHT22;389;48.710;9.392;2023-04-24T00:11:36;11.50;99.90
814;DHT22;389;48.710;9.392;2023-04-24T00:14:02;11.40;99.90
814;DHT22;389;48.710;9.392;2023-04-24T00:16:28;11.60;99.90
814;DHT22;389;48.710;9.392;2023-04-24T00:18:54;11.40;99.90
814;DHT22;389;48.710;9.392;2023-04-24T00:21:19;11.50;99.90
814;DHT22;389;48.710;9.392;2023-04-24T00:23:45;11.50;99.90
814;DHT22;389;48.710;9.392;2023-04-24T00:28:41;11.50;99.90
814;DHT22;389;48.710;9.392;2023-04-24T00:31:07;11.50;99.90
814;DHT22;389;48.710;9.392;2023-04-24T00:33:32;11.50;99.90
814;DHT22;389;48.710;9.392;2023-04-24T00:35:58;11.50;99.90
814;DHT22;389;48.710;9.392;2023-04-24T00:38:24;11.50;99.90
814;DHT22;389;48.710;9.392;2023-04-24T00:40:49;11.50;99.90
814;DHT22;389;48.710;9.392;2023-04-24T00:43:16;11.60;99.90
814;DHT22;389;48.710;9.392;2023-04-24T00:45:42;11.60;99.90
814;DHT22;389;48.710;9.392;2023-04-24T00:48:07;11.80;99.90
814;DHT22;389;48.710;9.392;2023-04-24T00:50:35;11.60;99.90
814;DHT22;389;48.710;9.392;2023-04-24T00:53:01;11.60;99.90
814;DHT22;389;48.710;9.392;2023-04-24T00:55:26;11.70;99.90
814;DHT22;389;48.710;9.392;2023-04-24T00:57:52;11.80;99.90
814;DHT22;389;48.710;9.392;2023-04-24T01:00:18;11.70;99.90
814;DHT22;389;48.710;9.392;2023-04-24T01:02:44;11.70;99.90
814;DHT22;389;48.710;9.392;2023-04-24T01:05:14;11.80;99.90
814;DHT22;389;48.710;9.392;2023-04-24T01:07:45;11.80;99.90
814;DHT22;389;48.710;9.392;2023-04-24T01:10:13;12.00;99.90
814;DHT22;389;48.710;9.392;2023-04-24T01:12:39;11.80;99.90
814;DHT22;389;48.710;9.392;2023-04-24T01:15:05;11.90;99.90
814;DHT22;389;48.710;9.392;2023-04-24T01:17:32;11.90;99.90
814;DHT22;389;48.710;9.392;2023-04-24T01:19:58;12.00;99.90
814;DHT22;389;48.710;9.392;2023-04-24T01:22:25;12.00;99.90
814;DHT22;389;48.710;9.392;2023-04-24T01:24:51;12.00;99.90
814;DHT22;389;48.710;9.392;2023-04-24T01:27:17;12.10;99.90
814;DHT22;389;48.710;9.392;2023-04-24T01:29:47;12.10;99.90
814;DHT22;389;48.710;9.392;2023-04-24T01:32:14;12.10;99.90
814;DHT22;389;48.710;9.392;2023-04-24T01:34:41;12.10;99.90
814;DHT22;389;48.710;9.392;2023-04-24T01:37:06;12.20;99.90
814;DHT22;389;48.710;9.392;2023-04-24T01:39:32;12.20;99.90
814;DHT22;389;48.710;9.392;2023-04-24T01:41:59;12.20;99.90
814;DHT22;389;48.710;9.392;2023-04-24T01:44:26;12.20;99.90
814;DHT22;389;48.710;9.392;2023-04-24T01:46:52;12.20;99.90
814;DHT22;389;48.710;9.392;2023-04-24T01:49:19;12.20;99.90
814;DHT22;389;48.710;9.392;2023-04-24T01:51:45;12.20;99.90
814;DHT22;389;48.710;9.392;2023-04-24T01:54:14;12.30;99.90
814;DHT22;389;48.710;9.392;2023-04-24T01:56:47;12.20;99.90
814;DHT22;389;48.710;9.392;2023-04-24T01:59:12;12.20;99.90
814;DHT22;389;48.710;9.392;2023-04-24T02:01:38;12.10;99.90
814;DHT22;389;48.710;9.392;2023-04-24T02:04:05;12.10;99.90
814;DHT22;389;48.710;9.392;2023-04-24T02:06:31;12.00;99.90
814;DHT22;389;48.710;9.392;2023-04-24T02:09:00;12.10;99.90
814;DHT22;389;48.710;9.392;2023-04-24T02:11:26;12.00;99.90
814;DHT22;389;48.710;9.392;2023-04-24T02:13:52;12.00;99.90
814;DHT22;389;48.710;9.392;2023-04-24T02:16:18;12.10;99.90
814;DHT22;389;48.710;9.392;2023-04-24T02:18:43;12.00;99.90
814;DHT22;389;48.710;9.392;2023-04-24T02:21:09;12.00;99.90
814;DHT22;389;48.710;9.392;2023-04-24T02:23:35;12.00;99.90
814;DHT22;389;48.710;9.392;2023-04-24T02:26:01;12.00;99.90
814;DHT22;389;48.710;9.392;2023-04-24T02:28:26;12.00;99.90
814;DHT22;389;48.710;9.392;2023-04-24T02:30:55;12.00;99.90
814;DHT22;389;48.710;9.392;2023-04-24T02:33:23;12.00;99.90
814;DHT22;389;48.710;9.392;2023-04-24T02:35:49;12.00;99.90
814;DHT22;389;48.710;9.392;2023-04-24T02:38:15;11.90;99.90
814;DHT22;389;48.710;9.392;2023-04-24T02:40:44;12.00;99.90
814;DHT22;389;48.710;9.392;2023-04-24T02:43:16;11.90;99.90
814;DHT22;389;48.710;9.392;2023-04-24T02:45:53;11.80;99.90
814;DHT22;389;48.710;9.392;2023-04-24T02:48:19;12.00;99.90
814;DHT22;389;48.710;9.392;2023-04-24T02:50:49;12.00;99.90
814;DHT22;389;48.710;9.392;2023-04-24T02:53:18;12.00;99.90
814;DHT22;389;48.710;9.392;2023-04-24T02:55:44;12.00;99.90
814;DHT22;389;48.710;9.392;2023-04-24T02:58:11;11.80;99.90
814;DHT22;389;48.710;9.392;2023-04-24T03:00:41;12.00;99.90
814;DHT22;389;48.710;9.392;2023-04-24T03:03:06;12.00;99.90
814;DHT22;389;48.710;9.392;2023-04-24T03:05:32;12.00;99.90
814;DHT22;389;48.710;9.392;2023-04-24T03:08:01;12.00;99.90
814;DHT22;389;48.710;9.392;2023-04-24T03:10:27;12.00;99.90
814;DHT22;389;48.710;9.392;2023-04-24T03:12:52;12.00;99.90
814;DHT22;389;48.710;9.392;2023-04-24T03:15:23;12.00;99.90
814;DHT22;389;48.710;9.392;2023-04-24T03:17:48;12.10;99.90
814;DHT22;389;48.710;9.392;2023-04-24T03:20:14;12.10;99.90
814;DHT22;389;48.710;9.392;2023-04-24T03:22:43;12.10;99.90
814;DHT22;389;48.710;9.392;2023-04-24T03:25:09;12.10;99.90
814;DHT22;389;48.710;9.392;2023-04-24T03:27:44;12.10;99.90
814;DHT22;389;48.710;9.392;2023-04-24T03:30:10;12.10;99.90
814;DHT22;389;48.710;9.392;2023-04-24T03:32:36;12.10;99.90
814;DHT22;389;48.710;9.392;2023-04-24T03:35:05;12.10;99.90
814;DHT22;389;48.710;9.392;2023-04-24T03:37:32;12.10;99.90
814;DHT22;389;48.710;9.392;2023-04-24T03:39:58;12.10;99.90
814;DHT22;389;48.710;9.392;2023-04-24T03:42:27;12.10;99.90
814;DHT22;389;48.710;9.392;2023-04-24T03:44:52;12.10;99.90
814;DHT22;389;48.710;9.392;2023-04-24T03:47:18;12.20;99.90
814;DHT22;389;48.710;9.392;2023-04-24T03:49:44;12.10;99.90
814;DHT22;389;48.710;9.392;2023-04-24T03:52:10;12.10;99.90
814;DHT22;389;48.710;9.392;2023-04-24T03:54:35;11.90;99.90
814;DHT22;389;48.710;9.392;2023-04-24T03:57:07;12.00;99.90
814;DHT22;389;48.710;9.392;2023-04-24T03:59:42;12.00;99.90
814;DHT22;389;48.710;9.392;2023-04-24T04:02:14;12.10;99.90
814;DHT22;389;48.710;9.392;2023-04-24T04:04:42;12.00;99.90
814;DHT22;389;48.710;9.392;2023-04-24T04:07:08;12.00;99.90
814;DHT22;389;48.710;9.392;2023-04-24T04:09:40;12.00;99.90
814;DHT22;389;48.710;9.392;2023-04-24T04:12:05;11.80;99.90
814;DHT22;389;48.710;9.392;2023-04-24T04:14:31;11.70;99.90
814;DHT22;389;48.710;9.392;2023-04-24T04:16:57;11.70;99.90
814;DHT22;389;48.710;9.392;2023-04-24T04:19:22;11.70;99.90
814;DHT22;389;48.710;9.392;2023-04-24T04:21:48;11.50;99.90
814;DHT22;389;48.710;9.392;2023-04-24T04:24:18;11.50;99.90
814;DHT22;389;48.710;9.392;2023-04-24T04:26:44;11.40;99.90
814;DHT22;389;48.710;9.392;2023-04-24T04:29:12;11.50;99.90
814;DHT22;389;48.710;9.392;2023-04-24T04:31:44;11.60;99.90
814;DHT22;389;48.710;9.392;2023-04-24T04:34:10;11.50;99.90
814;DHT22;389;48.710;9.392;2023-04-24T04:36:36;11.60;99.90
814;DHT22;389;48.710;9.392;2023-04-24T04:39:05;11.50;99.90
814;DHT22;389;48.710;9.392;2023-04-24T04:41:31;11.50;99.90
814;DHT22;389;48.710;9.392;2023-04-24T04:43:57;11.50;99.90
814;DHT22;389;48.710;9.392;2023-04-24T04:46:26;11.60;99.90
814;DHT22;389;48.710;9.392;2023-04-24T04:48:52;11.60;99.90
814;DHT22;389;48.710;9.392;2023-04-24T04:51:18;11.60;99.90
814;DHT22;389;48.710;9.392;2023-04-24T04:53:43;11.60;99.90
814;DHT22;389;48.710;9.392;2023-04-24T04:56:09;11.60;99.90
814;DHT22;389;48.710;9.392;2023-04-24T04:58:34;11.60;99.90
814;DHT22;389;48.710;9.392;2023-04-24T05:01:03;11.70;99.90
814;DHT22;389;48.710;9.392;2023-04-24T05:03:28;11.60;99.90
814;DHT22;389;48.710;9.392;2023-04-24T05:05:54;11.50;99.90
814;DHT22;389;48.710;9.392;2023-04-24T05:08:20;11.30;99.90
814;DHT22;389;48.710;9.392;2023-04-24T05:10:45;11.20;99.90
814;DHT22;389;48.710;9.392;2023-04-24T05:13:11;11.10;99.90
814;DHT22;389;48.710;9.392;2023-04-24T05:15:36;11.00;99.90
814;DHT22;389;48.710;9.392;2023-04-24T05:18:02;11.00;99.90
814;DHT22;389;48.710;9.392;2023-04-24T05:20:28;10.90;99.90
814;DHT22;389;48.710;9.392;2023-04-24T05:22:54;10.80;99.90
814;DHT22;389;48.710;9.392;2023-04-24T05:25:19;10.80;99.90
814;DHT22;389;48.710;9.392;2023-04-24T05:27:45;10.80;99.90
814;DHT22;389;48.710;9.392;2023-04-24T05:30:12;10.80;99.90
814;DHT22;389;48.710;9.392;2023-04-24T05:32:37;10.80;99.90
814;DHT22;389;48.710;9.392;2023-04-24T05:35:03;10.80;99.90
814;DHT22;389;48.710;9.392;2023-04-24T05:37:29;10.80;99.90
814;DHT22;389;48.710;9.392;2023-04-24T05:39:54;10.90;99.90
814;DHT22;389;48.710;9.392;2023-04-24T05:42:20;10.80;99.90
814;DHT22;389;48.710;9.392;2023-04-24T05:44:46;10.80;99.90
814;DHT22;389;48.710;9.392;2023-04-24T05:47:11;10.90;99.90
814;DHT22;389;48.710;9.392;2023-04-24T05:49:37;10.90;99.90
814;DHT22;389;48.710;9.392;2023-04-24T05:52:02;10.90;99.90
814;DHT22;389;48.710;9.392;2023-04-24T05:54:29;10.90;99.90
814;DHT22;389;48.710;9.392;2023-04-24T05:56:55;11.00;99.90
814;DHT22;389;48.710;9.392;2023-04-24T05:59:21;11.00;99.90
814;DHT22;389;48.710;9.392;2023-04-24T06:01:46;11.20;99.90
814;DHT22;389;48.710;9.392;2023-04-24T06:04:12;11.10;99.90
814;DHT22;389;48.710;9.392;2023-04-24T06:06:39;11.20;99.90
814;DHT22;389;48.710;9.392;2023-04-24T06:09:05;11.30;99.90
814;DHT22;389;48.710;9.392;2023-04-24T06:11:30;11.30;99.90
814;DHT22;389;48.710;9.392;2023-04-24T06:13:56;11.40;99.90
814;DHT22;389;48.710;9.392;2023-04-24T06:16:21;11.50;99.90
814;DHT22;389;48.710;9.392;2023-04-24T06:18:47;11.60;99.90
814;DHT22;389;48.710;9.392;2023-04-24T06:21:13;11.60;99.90
814;DHT22;389;48.710;9.392;2023-04-24T06:23:38;11.70;99.90
814;DHT22;389;48.710;9.392;2023-04-24T06:26:04;11.80;99.90
814;DHT22;389;48.710;9.392;2023-04-24T06:28:29;11.80;99.90
814;DHT22;389;48.710;9.392;2023-04-24T06:30:55;11.90;99.90
814;DHT22;389;48.710;9.392;2023-04-24T06:33:21;11.90;99.90
814;DHT22;389;48.710;9.392;2023-04-24T06:35:46;12.00;99.90
814;DHT22;389;48.710;9.392;2023-04-24T06:38:12;12.00;99.90
814;DHT22;389;48.710;9.392;2023-04-24T06:40:37;12.00;99.90
814;DHT22;389;48.710;9.392;2023-04-24T06:43:03;12.10;99.90
814;DHT22;389;48.710;9.392;2023-04-24T06:45:29;12.20;99.90
814;DHT22;389;48.710;9.392;2023-04-24T06:47:55;12.30;99.90
814;DHT22;389;48.710;9.392;2023-04-24T06:50:21;12.40;99.90
814;DHT22;389;48.710;9.392;2023-04-24T06:52:47;12.40;99.90
814;DHT22;389;48.710;9.392;2023-04-24T06:55:12;12.50;99.90
814;DHT22;389;48.710;9.392;2023-04-24T06:57:38;12.70;99.90
814;DHT22;389;48.710;9.392;2023-04-24T07:00:05;12.80;99.90
814;DHT22;389;48.710;9.392;2023-04-24T07:02:32;13.00;99.80
814;DHT22;389;48.710;9.392;2023-04-24T07:04:57;13.20;99.40
814;DHT22;389;48.710;9.392;2023-04-24T07:07:23;13.40;99.20
814;DHT22;389;48.710;9.392;2023-04-24T07:09:49;13.70;98.90
814;DHT22;389;48.710;9.392;2023-04-24T07:12:16;13.80;98.90
814;DHT22;389;48.710;9.392;2023-04-24T07:14:42;13.90;98.60
814;DHT22;389;48.710;9.392;2023-04-24T07:17:08;14.10;99.10
814;DHT22;389;48.710;9.392;2023-04-24T07:19:33;14.40;99.10
814;DHT22;389;48.710;9.392;2023-04-24T07:22:00;14.60;98.80
814;DHT22;389;48.710;9.392;2023-04-24T07:24:26;14.80;98.30
814;DHT22;389;48.710;9.392;2023-04-24T07:26:52;15.00;97.90
814;DHT22;389;48.710;9.392;2023-04-24T07:29:18;15.30;97.20
814;DHT22;389;48.710;9.392;2023-04-24T07:31:44;15.50;96.80
814;DHT22;389;48.710;9.392;2023-04-24T07:34:10;15.50;96.20
814;DHT22;389;48.710;9.392;2023-04-24T07:36:36;15.50;95.70
814;DHT22;389;48.710;9.392;2023-04-24T07:39:04;15.50;95.00
814;DHT22;389;48.710;9.392;2023-04-24T07:41:29;15.40;95.00
814;DHT22;389;48.710;9.392;2023-04-24T07:43:55;15.20;95.20
814;DHT22;389;48.710;9.392;2023-04-24T07:46:20;15.00;95.10
814;DHT22;389;48.710;9.392;2023-04-24T07:48:46;14.80;94.70
814;DHT22;389;48.710;9.392;2023-04-24T07:51:14;14.40;94.70
814;DHT22;389;48.710;9.392;2023-04-24T07:53:40;14.00;94.30
814;DHT22;389;48.710;9.392;2023-04-24T07:56:06;13.70;95.10
814;DHT22;389;48.710;9.392;2023-04-24T07:58:32;13.50;95.70
814;DHT22;389;48.710;9.392;2023-04-24T08:00:57;13.30;96.60
814;DHT22;389;48.710;9.392;2023-04-24T08:03:23;13.20;97.10
814;DHT22;389;48.710;9.392;2023-04-24T08:05:50;13.10;97.90
814;DHT22;389;48.710;9.392;2023-04-24T08:08:16;13.00;97.60
814;DHT22;389;48.710;9.392;2023-04-24T08:10:42;13.00;97.50
814;DHT22;389;48.710;9.392;2023-04-24T08:13:08;13.10;97.90
814;DHT22;389;48.710;9.392;2023-04-24T08:15:34;13.10;98.00
814;DHT22;389;48.710;9.392;2023-04-24T08:18:00;13.30;97.70
814;DHT22;389;48.710;9.392;2023-04-24T08:20:25;13.40;97.30
814;DHT22;389;48.710;9.392;2023-04-24T08:22:51;13.70;97.40
814;DHT22;389;48.710;9.392;2023-04-24T08:25:16;14.00;96.00
814;DHT22;389;48.710;9.392;2023-04-24T08:27:43;14.20;93.40
814;DHT22;389;48.710;9.392;2023-04-24T08:30:09;14.40;93.70
814;DHT22;389;48.710;9.392;2023-04-24T08:32:36;14.60;93.90
814;DHT22;389;48.710;9.392;2023-04-24T08:35:01;14.90;92.60
814;DHT22;389;48.710;9.392;2023-04-24T08:37:27;15.10;90.30
814;DHT22;389;48.710;9.392;2023-04-24T08:39:53;15.30;90.20
814;DHT22;389;48.710;9.392;2023-04-24T08:42:20;15.30;89.70
814;DHT22;389;48.710;9.392;2023-04-24T08:44:46;15.40;88.50
814;DHT22;389;48.710;9.392;2023-04-24T08:47:12;15.50;86.90
814;DHT22;389;48.710;9.392;2023-04-24T08:49:38;15.50;88.30
814;DHT22;389;48.710;9.392;2023-04-24T08:52:05;15.50;86.90
814;DHT22;389;48.710;9.392;2023-04-24T08:54:34;15.50;88.10
814;DHT22;389;48.710;9.392;2023-04-24T08:57:02;15.60;87.30
814;DHT22;389;48.710;9.392;2023-04-24T08:59:29;15.40;86.10
814;DHT22;389;48.710;9.392;2023-04-24T09:01:55;15.30;86.90
814;DHT22;389;48.710;9.392;2023-04-24T09:04:23;15.30;84.60
814;DHT22;389;48.710;9.392;2023-04-24T09:06:56;15.40;85.10
814;DHT22;389;48.710;9.392;2023-04-24T09:09:46;15.30;84.20
814;DHT22;389;48.710;9.392;2023-04-24T09:12:13;15.60;85.00
814;DHT22;389;48.710;9.392;2023-04-24T09:14:39;15.80;84.20
814;DHT22;389;48.710;9.392;2023-04-24T09:17:08;16.10;84.10
814;DHT22;389;48.710;9.392;2023-04-24T09:19:33;16.20;80.20
814;DHT22;389;48.710;9.392;2023-04-24T09:21:59;16.00;78.10
814;DHT22;389;48.710;9.392;2023-04-24T09:24:24;16.10;77.10
814;DHT22;389;48.710;9.392;2023-04-24T09:26:57;15.80;77.60
814;DHT22;389;48.710;9.392;2023-04-24T09:29:24;15.80;78.10
814;DHT22;389;48.710;9.392;2023-04-24T09:31:49;15.90;77.70
814;DHT22;389;48.710;9.392;2023-04-24T09:34:24;15.90;77.90
814;DHT22;389;48.710;9.392;2023-04-24T09:36:51;15.90;75.30
814;DHT22;389;48.710;9.392;2023-04-24T09:39:17;16.00;76.10
814;DHT22;389;48.710;9.392;2023-04-24T09:41:49;16.20;76.10
814;DHT22;389;48.710;9.392;2023-04-24T09:44:16;16.10;75.00
814;DHT22;389;48.710;9.392;2023-04-24T09:46:44;16.20;74.70
814;DHT22;389;48.710;9.392;2023-04-24T09:49:13;16.30;73.40
814;DHT22;389;48.710;9.392;2023-04-24T09:51:39;16.20;71.60
814;DHT22;389;48.710;9.392;2023-04-24T09:54:20;16.30;72.20
814;DHT22;389;48.710;9.392;2023-04-24T09:56:48;16.50;72.50
814;DHT22;389;48.710;9.392;2023-04-24T09:59:15;16.70;70.20
814;DHT22;389;48.710;9.392;2023-04-24T10:01:41;17.10;67.40
814;DHT22;389;48.710;9.392;2023-04-24T10:04:28;17.00;65.30
814;DHT22;389;48.710;9.392;2023-04-24T10:06:56;16.90;65.40
814;DHT22;389;48.710;9.392;2023-04-24T10:09:23;16.80;63.30
814;DHT22;389;48.710;9.392;2023-04-24T10:11:51;16.70;63.80
814;DHT22;389;48.710;9.392;2023-04-24T10:14:20;16.30;63.90
814;DHT22;389;48.710;9.392;2023-04-24T10:16:47;16.20;63.70
814;DHT22;389;48.710;9.392;2023-04-24T10:19:14;16.10;64.80
814;DHT22;389;48.710;9.392;2023-04-24T10:21:41;16.20;63.60
814;DHT22;389;48.710;9.392;2023-04-24T10:24:12;16.30;63.60
814;DHT22;389;48.710;9.392;2023-04-24T10:26:40;16.30;63.50
814;DHT22;389;48.710;9.392;2023-04-24T10:29:06;16.30;63.00
814;DHT22;389;48.710;9.392;2023-04-24T10:31:36;16.20;63.40
814;DHT22;389;48.710;9.392;2023-04-24T10:34:05;16.00;63.80
814;DHT22;389;48.710;9.392;2023-04-24T10:36:32;15.90;65.00
814;DHT22;389;48.710;9.392;2023-04-24T10:39:01;15.70;64.60
814;DHT22;389;48.710;9.392;2023-04-24T10:41:27;15.60;64.50
814;DHT22;389;48.710;9.392;2023-04-24T10:44:09;15.60;65.90
814;DHT22;389;48.710;9.392;2023-04-24T10:46:36;15.50;64.50
814;DHT22;389;48.710;9.392;2023-04-24T10:49:06;15.60;66.70
814;DHT22;389;48.710;9.392;2023-04-24T10:51:53;15.80;66.00
814;DHT22;389;48.710;9.392;2023-04-24T10:54:45;16.00;63.90
814;DHT22;389;48.710;9.392;2023-04-24T11:00:10;16.40;62.60
814;DHT22;389;48.710;9.392;2023-04-24T11:02:39;16.60;61.70
814;DHT22;389;48.710;9.392;2023-04-24T11:05:06;16.80;62.10
814;DHT22;389;48.710;9.392;2023-04-24T11:10:45;16.90;63.00
814;DHT22;389;48.710;9.392;2023-04-24T11:13:13;16.90;63.60
814;DHT22;389;48.710;9.392;2023-04-24T11:15:41;16.80;62.50
814;DHT22;389;48.710;9.392;2023-04-24T11:18:12;16.70;63.40
814;DHT22;389;48.710;9.392;2023-04-24T11:20:42;16.60;63.80
814;DHT22;389;48.710;9.392;2023-04-24T11:23:08;16.50;64.40
814;DHT22;389;48.710;9.392;2023-04-24T11:25:35;16.40;65.40
814;DHT22;389;48.710;9.392;2023-04-24T11:28:05;16.30;65.70
814;DHT22;389;48.710;9.392;2023-04-24T11:30:31;16.10;65.60
814;DHT22;389;48.710;9.392;2023-04-24T11:33:03;16.00;65.80
814;DHT22;389;48.710;9.392;2023-04-24T11:35:29;15.90;66.90
814;DHT22;389;48.710;9.392;2023-04-24T11:37:56;15.70;67.00
814;DHT22;389;48.710;9.392;2023-04-24T11:40:22;15.50;67.20
814;DHT22;389;48.710;9.392;2023-04-24T11:42:49;15.40;67.50
814;DHT22;389;48.710;9.392;2023-04-24T11:45:24;15.30;68.00
814;DHT22;389;48.710;9.392;2023-04-24T11:47:50;15.20;67.70
814;DHT22;389;48.710;9.392;2023-04-24T11:50:17;15.20;68.60
814;DHT22;389;48.710;9.392;2023-04-24T11:52:45;15.30;69.20
814;DHT22;389;48.710;9.392;2023-04-24T11:57:43;15.70;69.90
814;DHT22;389;48.710;9.392;2023-04-24T12:00:16;15.90;68.00
814;DHT22;389;48.710;9.392;2023-04-24T12:02:42;16.00;66.30
814;DHT22;389;48.710;9.392;2023-04-24T12:05:08;16.20;66.50
814;DHT22;389;48.710;9.392;2023-04-24T12:07:43;16.10;66.50
814;DHT22;389;48.710;9.392;2023-04-24T12:10:09;16.00;66.20
814;DHT22;389;48.710;9.392;2023-04-24T12:12:34;15.90;67.10
814;DHT22;389;48.710;9.392;2023-04-24T12:15:01;15.80;67.30
814;DHT22;389;48.710;9.392;2023-04-24T12:17:32;15.60;67.60
814;DHT22;389;48.710;9.392;2023-04-24T12:20:05;15.50;67.10
814;DHT22;389;48.710;9.392;2023-04-24T12:22:52;15.50;67.40
814;DHT22;389;48.710;9.392;2023-04-24T12:25:23;15.60;67.80
814;DHT22;389;48.710;9.392;2023-04-24T12:28:08;15.80;67.10
814;DHT22;389;48.710;9.392;2023-04-24T12:30:48;16.10;67.70
814;DHT22;389;48.710;9.392;2023-04-24T12:33:21;16.40;66.50
814;DHT22;389;48.710;9.392;2023-04-24T12:35:48;16.70;65.30
814;DHT22;389;48.710;9.392;2023-04-24T12:38:16;16.90;66.20
814;DHT22;389;48.710;9.392;2023-04-24T12:40:47;17.00;65.10
814;DHT22;389;48.710;9.392;2023-04-24T12:45:38;16.70;64.80
814;DHT22;389;48.710;9.392;2023-04-24T12:48:04;16.50;66.30
814;DHT22;389;48.710;9.392;2023-04-24T12:50:30;16.30;66.90
814;DHT22;389;48.710;9.392;2023-04-24T12:52:56;16.20;67.60
814;DHT22;389;48.710;9.392;2023-04-24T12:55:21;16.10;68.00
814;DHT22;389;48.710;9.392;2023-04-24T12:57:47;16.10;67.30
814;DHT22;389;48.710;9.392;2023-04-24T13:00:13;16.30;68.10
814;DHT22;389;48.710;9.392;2023-04-24T13:02:39;16.30;67.70
814;DHT22;389;48.710;9.392;2023-04-24T13:05:06;16.40;67.10
814;DHT22;389;48.710;9.392;2023-04-24T13:07:32;16.50;66.60
814;DHT22;389;48.710;9.392;2023-04-24T13:09:58;16.80;67.30
814;DHT22;389;48.710;9.392;2023-04-24T13:12:23;16.80;65.70
814;DHT22;389;48.710;9.392;2023-04-24T13:14:49;16.70;65.30
814;DHT22;389;48.710;9.392;2023-04-24T13:17:15;16.60;65.70
814;DHT22;389;48.710;9.392;2023-04-24T13:19:42;16.50;66.20
814;DHT22;389;48.710;9.392;2023-04-24T13:22:09;16.20;66.70
814;DHT22;389;48.710;9.392;2023-04-24T13:24:35;16.10;66.00
814;DHT22;389;48.710;9.392;2023-04-24T13:27:00;15.80;66.90
814;DHT22;389;48.710;9.392;2023-04-24T13:29:26;15.70;68.20
814;DHT22;389;48.710;9.392;2023-04-24T13:31:53;15.60;68.10
814;DHT22;389;48.710;9.392;2023-04-24T13:34:20;15.50;68.00
814;DHT22;389;48.710;9.392;2023-04-24T13:36:46;15.50;69.00
814;DHT22;389;48.710;9.392;2023-04-24T13:39:12;15.50;70.10
814;DHT22;389;48.710;9.392;2023-04-24T13:41:38;15.50;71.30
814;DHT22;389;48.710;9.392;2023-04-24T13:44:04;15.50;73.00
814;DHT22;389;48.710;9.392;2023-04-24T13:46:30;15.50;74.20
814;DHT22;389;48.710;9.392;2023-04-24T13:48:56;15.40;74.50
814;DHT22;389;48.710;9.392;2023-04-24T13:51:23;15.40;72.70
814;DHT22;389;48.710;9.392;2023-04-24T13:53:48;15.50;73.40
814;DHT22;389;48.710;9.392;2023-04-24T13:56:14;15.50;72.80
814;DHT22;389;48.710;9.392;2023-04-24T13:58:40;15.60;73.30
814;DHT22;389;48.710;9.392;2023-04-24T14:01:06;15.70;71.00
814;DHT22;389;48.710;9.392;2023-04-24T14:03:33;15.70;69.30
814;DHT22;389;48.710;9.392;2023-04-24T14:05:58;15.70;68.70
814;DHT22;389;48.710;9.392;2023-04-24T14:08:24;15.50;68.70
814;DHT22;389;48.710;9.392;2023-04-24T14:10:50;15.40;69.60
814;DHT22;389;48.710;9.392;2023-04-24T14:13:16;15.30;68.40
814;DHT22;389;48.710;9.392;2023-04-24T14:15:42;15.20;69.50
814;DHT22;389;48.710;9.392;2023-04-24T14:18:08;15.10;70.60
814;DHT22;389;48.710;9.392;2023-04-24T14:20:33;15.00;72.30
814;DHT22;389;48.710;9.392;2023-04-24T14:22:59;14.80;74.30
814;DHT22;389;48.710;9.392;2023-04-24T14:25:25;14.80;74.30
814;DHT22;389;48.710;9.392;2023-04-24T14:27:51;14.60;74.40
814;DHT22;389;48.710;9.392;2023-04-24T14:30:17;14.70;75.00
814;DHT22;389;48.710;9.392;2023-04-24T14:32:42;14.80;75.50
814;DHT22;389;48.710;9.392;2023-04-24T14:35:08;14.70;75.60
814;DHT22;389;48.710;9.392;2023-04-24T14:37:34;14.80;75.80
814;DHT22;389;48.710;9.392;2023-04-24T14:40:01;14.90;76.10
814;DHT22;389;48.710;9.392;2023-04-24T14:42:26;15.00;75.40
814;DHT22;389;48.710;9.392;2023-04-24T14:44:54;15.20;75.00
814;DHT22;389;48.710;9.392;2023-04-24T14:47:19;15.20;75.00
814;DHT22;389;48.710;9.392;2023-04-24T14:49:50;15.20;75.00
814;DHT22;389;48.710;9.392;2023-04-24T14:52:15;15.20;75.30
814;DHT22;389;48.710;9.392;2023-04-24T14:54:41;15.10;76.30
814;DHT22;389;48.710;9.392;2023-04-24T14:57:07;14.80;78.00
814;DHT22;389;48.710;9.392;2023-04-24T14:59:33;14.40;81.80
814;DHT22;389;48.710;9.392;2023-04-24T15:01:58;14.20;85.30
814;DHT22;389;48.710;9.392;2023-04-24T15:04:24;14.10;87.30
814;DHT22;389;48.710;9.392;2023-04-24T15:06:53;14.00;86.00
814;DHT22;389;48.710;9.392;2023-04-24T15:09:20;14.00;83.60
814;DHT22;389;48.710;9.392;2023-04-24T15:11:47;13.90;83.10
814;DHT22;389;48.710;9.392;2023-04-24T15:14:14;14.10;84.70
814;DHT22;389;48.710;9.392;2023-04-24T15:16:40;14.10;82.70
814;DHT22;389;48.710;9.392;2023-04-24T15:19:05;14.30;83.90
814;DHT22;389;48.710;9.392;2023-04-24T15:21:31;14.30;81.40
814;DHT22;389;48.710;9.392;2023-04-24T15:23:57;14.40;82.20
814;DHT22;389;48.710;9.392;2023-04-24T15:26:23;14.60;82.10
814;DHT22;389;48.710;9.392;2023-04-24T15:28:49;14.80;80.40
814;DHT22;389;48.710;9.392;2023-04-24T15:31:14;14.90;79.20
814;DHT22;389;48.710;9.392;2023-04-24T15:33:40;14.70;78.60
814;DHT22;389;48.710;9.392;2023-04-24T15:36:06;14.90;79.20
814;DHT22;389;48.710;9.392;2023-04-24T15:38:32;14.90;78.30
814;DHT22;389;48.710;9.392;2023-04-24T15:40:57;14.90;78.00
814;DHT22;389;48.710;9.392;2023-04-24T15:43:23;14.80;77.60
814;DHT22;389;48.710;9.392;2023-04-24T15:45:52;14.80;76.10
814;DHT22;389;48.710;9.392;2023-04-24T15:48:18;14.70;76.10
814;DHT22;389;48.710;9.392;2023-04-24T15:50:44;14.60;75.50
814;DHT22;389;48.710;9.392;2023-04-24T15:53:09;14.50;73.40
814;DHT22;389;48.710;9.392;2023-04-24T15:55:35;14.40;72.70
814;DHT22;389;48.710;9.392;2023-04-24T15:58:02;14.40;72.20
814;DHT22;389;48.710;9.392;2023-04-24T16:00:27;14.30;73.00
814;DHT22;389;48.710;9.392;2023-04-24T16:03:01;14.30;72.70
814;DHT22;389;48.710;9.392;2023-04-24T16:05:27;14.30;72.70
814;DHT22;389;48.710;9.392;2023-04-24T16:07:53;14.30;74.00
814;DHT22;389;48.710;9.392;2023-04-24T16:10:18;14.10;80.30
814;DHT22;389;48.710;9.392;2023-04-24T16:12:44;13.90;83.00
814;DHT22;389;48.710;9.392;2023-04-24T16:15:10;13.80;85.20
814;DHT22;389;48.710;9.392;2023-04-24T16:17:36;13.80;84.70
814;DHT22;389;48.710;9.392;2023-04-24T16:20:03;13.70;85.50
814;DHT22;389;48.710;9.392;2023-04-24T16:22:29;13.70;84.30
814;DHT22;389;48.710;9.392;2023-04-24T16:24:55;13.60;83.10
814;DHT22;389;48.710;9.392;2023-04-24T16:27:21;13.60;83.30
814;DHT22;389;48.710;9.392;2023-04-24T16:29:47;13.60;83.90
814;DHT22;389;48.710;9.392;2023-04-24T16:32:12;13.70;82.30
814;DHT22;389;48.710;9.392;2023-04-24T16:34:38;13.70;82.70
814;DHT22;389;48.710;9.392;2023-04-24T16:37:04;13.80;79.70
814;DHT22;389;48.710;9.392;2023-04-24T16:39:30;13.80;80.10
814;DHT22;389;48.710;9.392;2023-04-24T16:41:56;13.80;80.40
814;DHT22;389;48.710;9.392;2023-04-24T16:44:22;13.80;80.30
814;DHT22;389;48.710;9.392;2023-04-24T16:46:48;13.70;80.20